Sequoia National Park, California
Current Conditions -  °F | °C
As of 8:15 PM on Tuesday 25 Nov 2014 (Local Time) from KVIS Reporting Station
Clear Clear  
Wind Chill:   Ceiling: Unl
Heat Index:   Visibility: 4mi
Dew Point:   Wind: 0mph
Humidity: 71%   Direction: NA
Pressure: 30.4"   Gusts: NA
Location:  36.5932°N, 118.838°W
Report Text: KVIS 260415Z 00000KT 4SM CLR 09/04 A3040 RMK AO1
Loading
Personal Weather Stations






























Interactive Weather Map New forecast layout! Learn more

10-Day Weather Forecast

Advertisements
Track Severe Weather on mobile